Time;durP1;ratioP1;P1;durP2;ratioP2;P2;SDS_P1;SDS_P2;PMS_P1;PMS_P2;Temp;Humidity;BMP_temperature;BMP_pressure;BME280_temperature;BME280_humidity;BME280_pressure;Samples;Min_cycle;Max_cycle;Signal;HPM_P1;HPM_P2
2022/04/27 00:01:17;;;;;;;26.88;19.58;;;;;;;5.58;100.00;99932.88;5075263;28;20025;-73
2022/04/27 00:03:43;;;;;;;27.27;20.90;;;;;;;5.46;100.00;99918.50;5075162;28;20036;-72
2022/04/27 00:06:09;;;;;;;29.52;21.20;;;;;;;5.44;100.00;99922.84;5075333;28;20021;-72
2022/04/27 00:08:34;;;;;;;26.20;20.85;;;;;;;5.39;100.00;99916.06;5074771;28;20039;-73
2022/04/27 00:11:00;;;;;;;26.60;20.98;;;;;;;5.45;100.00;99929.72;5075131;28;20049;-73
2022/04/27 00:13:26;;;;;;;26.33;21.23;;;;;;;5.43;100.00;99933.19;5074911;28;20028;-72
2022/04/27 00:15:51;;;;;;;26.38;21.17;;;;;;;5.34;100.00;99921.34;5057239;28;20048;-72
2022/04/27 00:18:17;;;;;;;26.63;20.15;;;;;;;5.39;100.00;99934.16;5074930;28;20024;-73
2022/04/27 00:20:42;;;;;;;28.48;20.40;;;;;;;5.31;100.00;99931.75;5074960;28;20021;-73
2022/04/27 00:23:08;;;;;;;25.70;19.83;;;;;;;5.36;100.00;99939.41;5075103;28;20353;-73
2022/04/27 00:25:34;;;;;;;24.88;20.00;;;;;;;5.24;100.00;99931.00;5074729;28;20051;-72
2022/04/27 00:27:59;;;;;;;26.95;18.88;;;;;;;5.30;100.00;99945.53;5074654;28;20527;-72
2022/04/27 00:30:25;;;;;;;25.17;19.10;;;;;;;5.28;100.00;99944.72;5074412;28;20025;-73
2022/04/27 00:32:50;;;;;;;22.65;17.80;;;;;;;5.25;100.00;99947.34;5074561;28;20078;-73
2022/04/27 00:35:15;;;;;;;24.33;17.95;;;;;;;5.19;100.00;99938.00;5074796;28;20020;-73
2022/04/27 00:37:41;;;;;;;22.42;17.65;;;;;;;5.17;100.00;99939.75;5074513;28;20549;-73
2022/04/27 00:40:06;;;;;;;22.33;17.83;;;;;;;5.17;100.00;99950.09;5074691;28;20056;-73
2022/04/27 00:42:32;;;;;;;25.05;17.77;;;;;;;5.10;100.00;99942.47;5074617;28;20027;-73
2022/04/27 00:44:57;;;;;;;23.50;17.90;;;;;;;5.11;100.00;99944.22;5074495;28;20516;-73
2022/04/27 00:47:23;;;;;;;25.67;17.80;;;;;;;5.17;100.00;99954.41;5074148;28;20028;-72
2022/04/27 00:49:51;;;;;;;20.27;16.98;;;;;;;5.14;100.00;99937.25;5073008;28;20024;-72
2022/04/27 00:52:18;;;;;;;21.58;15.38;;;;;;;5.19;100.00;99932.84;5074494;28;20032;-73
2022/04/27 00:54:46;;;;;;;22.23;14.65;;;;;;;5.24;100.00;99941.34;5073956;28;20499;-73
2022/04/27 00:57:11;;;;;;;18.48;13.65;;;;;;;5.38;100.00;99947.94;5074287;28;20051;-73
2022/04/27 00:59:37;;;;;;;23.08;13.73;;;;;;;5.35;100.00;99935.97;5074025;28;20111;-72
2022/04/27 01:02:06;;;;;;;19.20;13.55;;;;;;;5.41;100.00;99935.81;5074012;28;20111;-73
2022/04/27 01:04:36;;;;;;;19.67;13.13;;;;;;;5.54;100.00;99951.91;5074096;28;20035;-73
2022/04/27 01:07:03;;;;;;;16.50;12.17;;;;;;;5.57;100.00;99949.28;5074264;28;20056;-72
2022/04/27 01:09:32;;;;;;;16.95;12.27;;;;;;;5.64;100.00;99947.41;5073784;28;20020;-72
2022/04/27 01:11:58;;;;;;;20.77;13.23;;;;;;;5.66;100.00;99938.75;5074016;28;20029;-73
2022/04/27 01:14:24;;;;;;;19.85;13.00;;;;;;;5.75;100.00;99948.88;5073631;28;20024;-73
2022/04/27 01:16:54;;;;;;;25.92;14.45;;;;;;;5.85;100.00;99957.25;5073790;28;20084;-73
2022/04/27 01:19:23;;;;;;;19.90;13.52;;;;;;;5.88;100.00;99939.09;5074063;28;20044;-72
2022/04/27 01:21:50;;;;;;;20.70;12.57;;;;;;;5.94;100.00;99945.88;5073855;28;20025;-73
2022/04/27 01:24:20;;;;;;;19.50;12.18;;;;;;;6.06;100.00;99961.13;5073825;28;20574;-72
2022/04/27 01:26:49;;;;;;;18.17;12.80;;;;;;;6.07;100.00;99941.28;5073489;28;20400;-72
2022/04/27 01:29:16;;;;;;;20.88;13.73;;;;;;;6.11;100.00;99942.91;5073429;28;20086;-72
2022/04/27 01:31:43;;;;;;;19.73;12.82;;;;;;;6.17;100.00;99943.63;5073595;28;20051;-72
2022/04/27 01:34:08;;;;;;;22.00;12.75;;;;;;;6.24;100.00;99950.38;5073792;28;20028;-73
2022/04/27 01:36:34;;;;;;;20.42;13.77;;;;;;;6.34;100.00;99957.91;5073405;28;20051;-73
2022/04/27 01:38:59;;;;;;;18.70;13.05;;;;;;;6.34;100.00;99955.31;5073438;28;20119;-73
2022/04/27 01:41:24;;;;;;;19.13;12.48;;;;;;;6.45;100.00;99964.50;5073130;28;20392;-73
2022/04/27 01:43:50;;;;;;;17.08;12.02;;;;;;;6.36;100.00;99946.63;5073221;28;20059;-73
2022/04/27 01:46:15;;;;;;;18.00;12.05;;;;;;;6.48;100.00;99953.22;5073204;28;20024;-73
2022/04/27 01:48:40;;;;;;;15.50;11.45;;;;;;;6.57;100.00;99967.66;5073070;28;20032;-73
2022/04/27 01:51:07;;;;;;;18.00;12.10;;;;;;;6.62;100.00;99973.59;5073250;28;20033;-72
2022/04/27 01:56:16;;;;;;;15.93;10.88;;;;;;;6.62;100.00;99958.06;5073256;28;20515;-73
2022/04/27 01:58:41;;;;;;;16.20;11.30;;;;;;;6.71;100.00;99966.44;5072753;28;20024;-73
2022/04/27 02:01:11;;;;;;;13.50;10.90;;;;;;;6.74;100.00;99970.66;5072819;28;20024;-73
2022/04/27 02:03:36;;;;;;;17.02;11.48;;;;;;;6.71;100.00;99960.41;5072631;28;20464;-73
2022/04/27 02:06:02;;;;;;;16.15;11.05;;;;;;;6.75;100.00;99960.28;5072914;28;20016;-72
2022/04/27 02:08:27;;;;;;;15.45;10.75;;;;;;;6.81;100.00;99966.19;5072504;28;20024;-72
2022/04/27 02:10:53;;;;;;;12.73;10.07;;;;;;;6.84;100.00;99964.38;5072521;28;20049;-72
2022/04/27 02:13:18;;;;;;;13.52;9.75;;;;;;;6.85;100.00;99953.13;5072932;28;20025;-72
2022/04/27 02:15:44;;;;;;;11.48;9.65;;;;;;;6.85;100.00;99947.94;5072539;28;20111;-73
2022/04/27 02:18:09;;;;;;;12.50;9.27;;;;;;;6.91;100.00;99957.28;5072775;28;20016;-72
2022/04/27 02:20:35;;;;;;;9.57;8.00;;;;;;;6.93;100.00;99953.78;5072407;28;20028;-73
2022/04/27 02:23:00;;;;;;;12.82;8.77;;;;;;;6.98;100.00;99956.25;5072561;28;20576;-73
2022/04/27 02:25:26;;;;;;;9.60;8.55;;;;;;;7.05;100.00;99962.13;5072398;28;20112;-73
2022/04/27 02:27:52;;;;;;;9.05;7.97;;;;;;;7.07;100.00;99968.94;5072485;28;20103;-72
2022/04/27 02:30:21;;;;;;;12.82;8.98;;;;;;;7.04;100.00;99961.28;5072539;28;20021;-73
2022/04/27 02:32:47;;;;;;;10.30;7.90;;;;;;;7.02;100.00;99954.41;5072278;28;20025;-72
2022/04/27 02:35:14;;;;;;;9.48;8.35;;;;;;;7.05;100.00;99968.13;5072347;28;20040;-72
2022/04/27 02:37:40;;;;;;;20.15;12.70;;;;;;;7.05;100.00;99964.69;5072093;28;20016;-73
2022/04/27 02:40:09;;;;;;;19.52;13.48;;;;;;;6.96;100.00;99965.81;5072217;28;20024;-73
2022/04/27 02:42:34;;;;;;;22.67;14.73;;;;;;;6.92;100.00;99964.19;5072256;28;20028;-72
2022/04/27 02:44:59;;;;;;;25.15;16.23;;;;;;;6.84;100.00;99954.03;5072402;28;20081;-72
2022/04/27 02:47:25;;;;;;;20.23;14.25;;;;;;;6.85;100.00;99952.28;5072282;28;20048;-73
2022/04/27 02:52:34;;;;;;;13.55;10.65;;;;;;;6.76;100.00;99953.38;5071837;28;20055;-72
2022/04/27 02:55:00;;;;;;;13.35;10.70;;;;;;;6.73;100.00;99956.03;5072311;28;20108;-73
2022/04/27 02:57:25;;;;;;;13.68;10.27;;;;;;;6.71;100.00;99957.81;5072050;28;20029;-73
2022/04/27 02:59:51;;;;;;;13.18;10.00;;;;;;;6.68;100.00;99963.06;5071882;28;20481;-72
2022/04/27 03:02:17;;;;;;;19.00;11.05;;;;;;;6.68;100.00;99970.84;5072052;28;20031;-72
2022/04/27 03:04:43;;;;;;;16.90;12.50;;;;;;;6.58;100.00;99965.06;5072054;28;20060;-72
2022/04/27 03:07:08;;;;;;;14.63;10.82;;;;;;;6.46;100.00;99965.34;5071839;28;20403;-73
2022/04/27 03:09:34;;;;;;;14.32;10.63;;;;;;;6.34;100.00;99969.09;5071611;28;20487;-72
2022/04/27 03:12:00;;;;;;;15.15;11.98;;;;;;;6.28;100.00;99978.72;5071235;28;20074;-73
2022/04/27 03:14:26;;;;;;;16.25;13.13;;;;;;;6.16;100.00;99987.66;5071861;28;20115;-73
2022/04/27 03:16:52;;;;;;;18.02;13.10;;;;;;;5.93;100.00;99976.06;5071683;28;20024;-73
2022/04/27 03:19:18;;;;;;;18.58;13.02;;;;;;;5.88;100.00;99993.38;5071838;28;20082;-72
2022/04/27 03:21:44;;;;;;;16.95;13.60;;;;;;;5.75;100.00;99981.63;5071524;28;20024;-72
2022/04/27 03:24:10;;;;;;;16.42;13.10;;;;;;;5.64;100.00;99981.84;5071990;28;20086;-73
2022/04/27 03:26:35;;;;;;;16.60;13.10;;;;;;;5.57;100.00;99985.44;5071650;28;20104;-73
2022/04/27 03:29:01;;;;;;;18.83;15.15;;;;;;;5.49;100.00;99987.34;5071712;28;20032;-72
2022/04/27 03:31:26;;;;;;;32.13;23.15;;;;;;;5.46;100.00;99993.41;5071746;28;20027;-72
2022/04/27 03:33:52;;;;;;;43.22;30.92;;;;;;;5.34;100.00;99985.91;5071403;28;20067;-73
2022/04/27 03:36:17;;;;;;;50.65;36.65;;;;;;;5.34;100.00;99995.38;5071586;28;20025;-73
2022/04/27 03:38:43;;;;;;;58.25;41.33;;;;;;;5.21;100.00;99990.47;5071563;28;20032;-73
2022/04/27 03:41:09;;;;;;;59.45;42.38;;;;;;;5.30;100.00;100004.06;5071747;28;20438;-73
2022/04/27 03:43:34;;;;;;;46.92;33.35;;;;;;;5.22;100.00;99999.94;5071318;28;20107;-73
2022/04/27 03:46:00;;;;;;;53.15;37.67;;;;;;;5.27;100.00;100007.59;5071596;28;20120;-73
2022/04/27 03:48:26;;;;;;;59.95;39.55;;;;;;;5.22;100.00;100002.50;5071813;28;20078;-72
2022/04/27 03:50:51;;;;;;;49.53;35.13;;;;;;;5.16;100.00;100006.94;5071224;28;20029;-72
2022/04/27 03:53:17;;;;;;;58.50;37.60;;;;;;;5.18;100.00;100013.78;5071746;28;20085;-73
2022/04/27 03:55:42;;;;;;;55.25;37.30;;;;;;;5.15;100.00;100010.41;5071392;28;20031;-73
2022/04/27 03:58:07;;;;;;;54.88;37.58;;;;;;;5.20;100.00;100017.16;5071943;28;20030;-72
2022/04/27 04:00:33;;;;;;;47.28;33.28;;;;;;;5.16;100.00;100020.69;5071374;28;20063;-72
2022/04/27 04:03:00;;;;;;;53.47;36.38;;;;;;;5.17;100.00;100013.78;5071509;28;20427;-72
2022/04/27 04:05:26;;;;;;;49.15;36.63;;;;;;;5.28;100.00;100029.94;5071303;28;20480;-73
2022/04/27 04:07:52;;;;;;;52.30;38.17;;;;;;;5.34;100.00;100037.56;5071255;28;20085;-73
2022/04/27 04:10:18;;;;;;;50.47;35.75;;;;;;;5.44;100.00;100017.59;5071113;28;20442;-73
2022/04/27 04:12:46;;;;;;;47.50;36.10;;;;;;;5.82;100.00;100028.88;5071178;28;20021;-72
2022/04/27 04:15:13;;;;;;;48.95;34.30;;;;;;;6.12;100.00;100032.56;5071162;28;20430;-73
2022/04/27 04:17:44;;;;;;;40.97;32.17;;;;;;;6.36;100.00;100028.53;5071112;28;20383;-73
2022/04/27 04:20:14;;;;;;;39.10;29.80;;;;;;;6.56;100.00;100031.50;5071211;28;20361;-72
2022/04/27 04:22:40;;;;;;;38.60;29.45;;;;;;;6.63;100.00;100033.06;5053197;28;20025;-73
2022/04/27 04:30:35;;;;;;;36.80;28.35;;;;;;;7.12;100.00;100046.50;5074472;28;20075;-72
2022/04/27 04:33:00;;;;;;;35.25;27.27;;;;;;;7.32;100.00;100046.00;5074813;28;20468;-73
2022/04/27 04:35:25;;;;;;;30.75;24.25;;;;;;;7.43;100.00;100049.16;5074751;28;20460;-72
2022/04/27 04:37:51;;;;;;;28.00;21.90;;;;;;;7.51;100.00;100047.19;5074483;28;20020;-72
2022/04/27 04:40:16;;;;;;;21.85;18.42;;;;;;;7.60;100.00;100051.28;5074591;28;20582;-72
2022/04/27 04:42:41;;;;;;;23.52;17.92;;;;;;;7.67;100.00;100047.63;5074562;28;20031;-73
2022/04/27 04:45:07;;;;;;;18.77;14.95;;;;;;;7.81;100.00;100049.81;5074474;28;20369;-73
2022/04/27 04:47:33;;;;;;;21.83;16.77;;;;;;;7.98;100.00;100058.81;5074596;28;20070;-73
2022/04/27 04:49:58;;;;;;;21.48;16.90;;;;;;;8.08;100.00;100058.53;5074177;28;20104;-72
2022/04/27 04:52:23;;;;;;;17.98;14.52;;;;;;;8.10;100.00;100052.41;5074642;28;20031;-73
2022/04/27 04:54:49;;;;;;;58.30;31.83;;;;;;;8.29;100.00;100065.66;5074043;28;20025;-73
2022/04/27 04:57:14;;;;;;;35.60;22.73;;;;;;;8.44;100.00;100065.22;5074214;28;20048;-73
2022/04/27 04:59:40;;;;;;;23.05;17.40;;;;;;;8.55;100.00;100054.50;5073920;28;20039;-73
2022/04/27 05:02:05;;;;;;;21.27;16.73;;;;;;;8.69;100.00;100067.06;5074313;28;20021;-73
2022/04/27 05:04:31;;;;;;;27.35;18.48;;;;;;;8.86;100.00;100069.09;5074210;28;20039;-73
2022/04/27 05:06:57;;;;;;;23.00;17.42;;;;;;;9.17;100.00;100066.31;5073969;28;20471;-72
2022/04/27 05:09:22;;;;;;;26.40;18.92;;;;;;;9.78;100.00;100079.78;5073972;28;20070;-73
2022/04/27 05:11:48;;;;;;;25.80;19.45;;;;;;;10.32;100.00;100081.22;5073746;28;20044;-73
2022/04/27 05:14:13;;;;;;;30.55;20.42;;;;;;;10.67;100.00;100085.06;5073814;28;20024;-72
2022/04/27 05:16:39;;;;;;;31.45;21.83;;;;;;;10.74;100.00;100083.03;5074177;28;20032;-72
2022/04/27 05:19:04;;;;;;;28.60;20.77;;;;;;;10.91;100.00;100090.16;5073958;28;20032;-73
2022/04/27 05:21:30;;;;;;;25.30;17.90;;;;;;;11.19;100.00;100084.66;5073874;28;20476;-73
2022/04/27 05:23:55;;;;;;;28.80;18.38;;;;;;;11.34;100.00;100083.19;5073540;28;20026;-73
2022/04/27 05:26:21;;;;;;;27.83;17.33;;;;;;;11.62;100.00;100096.69;5073714;28;20384;-73
2022/04/27 05:34:15;;;;;;;25.60;16.20;;;;;;;13.45;83.93;100092.41;5073483;28;20031;-73
2022/04/27 05:36:40;;;;;;;24.80;17.38;;;;;;;13.11;85.87;100088.00;5072568;28;20032;-72
2022/04/27 05:39:06;;;;;;;25.15;17.58;;;;;;;12.79;84.74;100097.44;5073390;28;20115;-73
2022/04/27 05:41:31;;;;;;;24.20;17.25;;;;;;;12.63;86.50;100102.53;5073586;28;20032;-73
2022/04/27 05:43:57;;;;;;;21.17;17.50;;;;;;;12.58;86.58;100107.16;5073253;28;20116;-73
2022/04/27 05:46:22;;;;;;;26.15;16.98;;;;;;;12.38;86.76;100102.84;5073438;28;20074;-73
2022/04/27 05:48:47;;;;;;;23.15;16.52;;;;;;;12.26;88.00;100111.25;5073082;28;20024;-73
2022/04/27 05:51:13;;;;;;;21.77;16.20;;;;;;;12.15;87.06;100110.94;5073019;28;20388;-73
2022/04/27 05:53:41;;;;;;;25.13;17.80;;;;;;;12.22;87.03;100104.50;5073310;28;20043;-73
2022/04/27 05:56:07;;;;;;;23.90;17.67;;;;;;;12.50;85.18;100101.44;5073211;28;20028;-72
2022/04/27 05:58:32;;;;;;;28.60;17.15;;;;;;;12.77;84.99;100104.53;5073148;28;20024;-72
2022/04/27 06:00:58;;;;;;;25.33;18.38;;;;;;;13.14;83.63;100114.00;5073116;28;20025;-73
2022/04/27 06:03:23;;;;;;;24.10;17.13;;;;;;;13.66;81.78;100116.63;5072957;28;20020;-73
2022/04/27 06:05:48;;;;;;;30.55;19.58;;;;;;;14.08;79.53;100133.63;5072714;28;20444;-73
2022/04/27 06:08:14;;;;;;;23.92;18.08;;;;;;;14.07;77.79;100121.44;5073118;28;20033;-73
2022/04/27 06:10:39;;;;;;;25.00;18.55;;;;;;;14.08;77.09;100122.31;5072466;28;20047;-73
2022/04/27 06:13:05;;;;;;;27.45;18.63;;;;;;;13.76;77.09;100139.72;5072930;28;20049;-73
2022/04/27 06:15:31;;;;;;;23.48;17.88;;;;;;;13.67;78.17;100135.78;5072694;28;20032;-72
2022/04/27 06:17:56;;;;;;;23.92;18.67;;;;;;;13.70;78.15;100130.41;5072523;28;20025;-73
2022/04/27 06:20:22;;;;;;;23.58;18.02;;;;;;;13.55;78.35;100144.28;5072582;28;20032;-73
2022/04/27 06:22:47;;;;;;;25.80;18.20;;;;;;;13.43;79.11;100143.13;5072325;28;20101;-73
2022/04/27 06:25:13;;;;;;;22.60;17.20;;;;;;;13.38;79.37;100156.44;5072549;28;20442;-73
2022/04/27 06:27:39;;;;;;;25.77;17.83;;;;;;;13.32;78.92;100148.91;5072727;28;20362;-73
2022/04/27 06:30:05;;;;;;;26.20;18.30;;;;;;;13.26;77.71;100150.97;5072279;28;20037;-73
2022/04/27 06:32:31;;;;;;;24.52;18.23;;;;;;;13.25;77.55;100162.38;5072444;28;20028;-73
2022/04/27 06:35:00;;;;;;;26.30;16.27;;;;;;;13.21;77.21;100154.63;5084069;28;20036;-73
2022/04/27 06:37:27;;;;;;;26.45;16.88;;;;;;;13.17;77.92;100167.94;5092514;28;20093;-73
2022/04/27 06:39:52;;;;;;;23.67;19.08;;;;;;;12.96;78.48;100172.44;5092692;28;20035;-73
2022/04/27 06:42:22;;;;;;;23.33;18.23;;;;;;;12.85;79.37;100172.09;5092560;28;20495;-73
2022/04/27 06:44:48;;;;;;;29.20;18.90;;;;;;;12.81;78.82;100178.38;5092156;28;20490;-73
2022/04/27 06:47:14;;;;;;;27.75;19.48;;;;;;;12.73;78.45;100171.78;5092390;28;20020;-73
2022/04/27 06:49:39;;;;;;;25.77;18.98;;;;;;;12.64;78.06;100163.50;5092342;28;20028;-73
2022/04/27 06:52:05;;;;;;;28.52;20.90;;;;;;;12.76;79.06;100172.53;5092042;28;20357;-73
2022/04/27 06:54:31;;;;;;;27.00;20.38;;;;;;;13.05;79.70;100171.16;5092460;28;20115;-72
2022/04/27 06:56:57;;;;;;;27.42;20.13;;;;;;;13.40;79.48;100172.03;5073914;28;20531;-73
2022/04/27 06:59:22;;;;;;;25.23;19.13;;;;;;;14.03;77.21;100182.81;5092236;28;20098;-73
2022/04/27 07:01:48;;;;;;;24.58;19.60;;;;;;;14.71;75.19;100154.69;5092055;28;20032;-73
2022/04/27 07:04:14;;;;;;;23.52;17.67;;;;;;;14.76;71.57;100174.56;5092206;28;20036;-73
2022/04/27 07:06:39;;;;;;;24.42;16.85;;;;;;;14.78;69.78;100181.38;5092098;28;20418;-73
2022/04/27 07:09:07;;;;;;;19.15;15.93;;;;;;;15.65;67.11;100173.78;5092027;28;20446;-73
2022/04/27 07:11:33;;;;;;;20.40;15.35;;;;;;;18.68;54.66;100166.25;5092202;28;20044;-73
2022/04/27 07:13:59;;;;;;;20.88;15.40;;;;;;;19.42;49.52;100174.91;5091882;28;20077;-73
2022/04/27 07:16:24;;;;;;;22.13;16.27;;;;;;;22.05;41.66;100179.41;5092031;28;20107;-73
2022/04/27 07:18:50;;;;;;;20.90;15.75;;;;;;;23.49;38.49;100177.22;5091735;28;20510;-73
2022/04/27 07:21:15;;;;;;;22.45;15.60;;;;;;;24.47;35.20;100197.31;5091909;28;20084;-73
2022/04/27 07:23:41;;;;;;;18.20;13.57;;;;;;;23.49;32.78;100182.53;5092344;28;20031;-73
2022/04/27 07:26:07;;;;;;;14.30;11.20;;;;;;;22.14;33.98;100197.19;5091843;28;20028;-73
2022/04/27 07:28:34;;;;;;;16.85;12.00;;;;;;;23.00;34.52;100192.31;5092094;28;20028;-73
2022/04/27 07:31:00;;;;;;;15.73;13.20;;;;;;;25.06;32.73;100194.13;5091624;28;20043;-73
2022/04/27 07:33:25;;;;;;;15.48;11.73;;;;;;;25.74;28.76;100193.56;5091899;28;20024;-73
2022/04/27 07:35:50;;;;;;;14.20;10.20;;;;;;;27.06;27.17;100193.22;5091539;28;20039;-73
2022/04/27 07:38:16;;;;;;;14.48;9.68;;;;;;;26.83;25.62;100199.16;5091977;28;20471;-73
2022/04/27 07:40:41;;;;;;;12.73;8.93;;;;;;;27.06;25.56;100207.41;5092059;28;20044;-73
2022/04/27 07:43:07;;;;;;;11.68;9.48;;;;;;;25.97;26.25;100203.78;5091978;28;20069;-73
2022/04/27 07:45:33;;;;;;;13.98;10.27;;;;;;;24.63;28.69;100208.16;5091864;28;20468;-73
2022/04/27 07:47:58;;;;;;;11.80;9.68;;;;;;;22.87;30.62;100198.69;5091618;28;20479;-73
2022/04/27 07:50:24;;;;;;;13.48;9.80;;;;;;;21.96;32.38;100215.50;5091698;28;20020;-73
2022/04/27 07:52:49;;;;;;;16.55;10.13;;;;;;;20.88;34.50;100214.72;5091780;28;20032;-73
2022/04/27 07:55:15;;;;;;;12.40;10.75;;;;;;;21.37;36.02;100210.78;5091893;28;20028;-73
2022/04/27 07:57:40;;;;;;;10.38;9.27;;;;;;;22.42;32.39;100219.53;5091777;28;20024;-73
2022/04/27 08:00:12;;;;;;;13.20;10.88;;;;;;;22.66;32.85;100220.03;5095275;28;20028;-73
2022/04/27 08:02:38;;;;;;;14.02;10.07;;;;;;;22.67;32.07;100216.41;5095573;28;20020;-73
2022/04/27 08:05:04;;;;;;;14.40;9.75;;;;;;;21.93;33.00;100206.00;5095240;28;20020;-73
2022/04/27 08:07:40;;;;;;;15.43;8.98;;;;;;;21.50;32.76;100219.38;5077435;28;20063;-73
2022/04/27 08:10:16;;;;;;;12.57;9.15;;;;;;;20.52;34.69;100221.13;5095036;28;20515;-73
2022/04/27 08:12:46;;;;;;;13.60;9.73;;;;;;;20.34;36.04;100234.81;5095436;28;20051;-73
2022/04/27 08:15:16;;;;;;;9.73;8.63;;;;;;;21.08;34.44;100207.81;5094952;28;20376;-73
2022/04/27 08:18:01;;;;;;;12.35;9.52;;;;;;;20.67;35.17;100231.38;5095193;28;20031;-73
2022/04/27 08:23:21;;;;;;;9.40;7.47;;;;;;;19.15;36.23;100223.53;5095069;28;20031;-73
2022/04/27 08:25:48;;;;;;;10.18;7.05;;;;;;;18.80;35.45;100234.00;5094856;28;20028;-73
2022/04/27 08:28:14;;;;;;;9.57;7.60;;;;;;;18.57;36.81;100230.31;5095015;28;20024;-73
2022/04/27 08:30:42;;;;;;;10.82;7.70;;;;;;;18.73;37.65;100240.69;5095079;28;20391;-73
2022/04/27 08:33:08;;;;;;;9.23;7.32;;;;;;;18.57;36.78;100237.41;5094869;28;20031;-73
2022/04/27 08:35:34;;;;;;;8.75;7.28;;;;;;;18.29;38.34;100241.13;5095046;28;20036;-73
2022/04/27 08:38:01;;;;;;;4.80;4.28;;;;;;;17.81;35.28;100238.25;5094681;28;20357;-73
2022/04/27 08:40:28;;;;;;;7.75;5.95;;;;;;;17.24;37.53;100239.34;5094795;28;20039;-73
2022/04/27 08:42:54;;;;;;;11.00;6.85;;;;;;;16.75;39.70;100234.56;5094524;28;20110;-73
2022/04/27 08:45:20;;;;;;;9.68;8.43;;;;;;;16.32;42.03;100231.94;5094918;28;20035;-73
2022/04/27 08:47:46;;;;;;;8.73;7.78;;;;;;;16.36;44.58;100245.75;5094867;28;20463;-73
2022/04/27 08:50:12;;;;;;;8.32;7.43;;;;;;;16.30;43.35;100235.59;5094513;28;20032;-73
2022/04/27 08:52:39;;;;;;;8.98;5.97;;;;;;;16.17;40.70;100243.38;5094654;28;20032;-73
2022/04/27 08:55:05;;;;;;;8.18;6.88;;;;;;;15.89;41.12;100238.94;5094423;28;20057;-73
2022/04/27 08:57:31;;;;;;;9.98;7.65;;;;;;;15.87;42.84;100244.25;5094809;28;20028;-73
2022/04/27 08:59:56;;;;;;;10.45;7.50;;;;;;;16.00;42.74;100243.53;5086684;28;20090;-73
2022/04/27 09:02:25;;;;;;;9.90;7.72;;;;;;;16.06;42.20;100254.53;5076889;28;20103;-73
2022/04/27 09:05:07;;;;;;;10.75;7.43;;;;;;;16.18;42.16;100252.94;5074144;28;20032;-73
2022/04/27 09:07:42;;;;;;;9.98;7.05;;;;;;;16.25;42.70;100242.91;5081137;28;20047;-73
2022/04/27 09:10:13;;;;;;;8.88;6.90;;;;;;;16.37;42.22;100247.44;5092700;28;20055;-73
2022/04/27 09:12:49;;;;;;;12.27;8.52;;;;;;;16.27;43.22;100249.78;5094383;28;20024;-73
2022/04/27 09:15:18;;;;;;;10.07;7.15;;;;;;;16.25;41.55;100256.06;5093638;28;20028;-73
2022/04/27 09:20:47;;;;;;;11.48;8.13;;;;;;;15.89;42.98;100252.06;5074075;28;20404;-73
2022/04/27 09:23:23;;;;;;;8.63;5.88;;;;;;;15.83;41.92;100250.63;5073645;28;20492;-73
2022/04/27 09:25:51;;;;;;;7.07;5.97;;;;;;;15.67;41.77;100242.84;5073791;28;20045;-73
2022/04/27 09:28:17;;;;;;;10.75;7.72;;;;;;;15.76;42.98;100248.44;5073394;28;20480;-73
2022/04/27 09:30:46;;;;;;;7.75;6.55;;;;;;;15.72;42.80;100247.81;5073557;28;20376;-73
2022/04/27 09:33:12;;;;;;;12.50;8.23;;;;;;;15.77;43.06;100242.28;5081285;28;20020;-73
2022/04/27 09:35:38;;;;;;;9.32;7.32;;;;;;;15.71;43.77;100249.56;5093825;28;20080;-73
2022/04/27 09:38:13;;;;;;;11.18;6.95;;;;;;;15.89;44.91;100242.41;5093554;28;20035;-72
2022/04/27 09:40:43;;;;;;;11.63;5.65;;;;;;;16.01;41.79;100253.09;5093669;28;20399;-73
2022/04/27 09:43:09;;;;;;;11.05;6.95;;;;;;;16.06;42.02;100248.44;5093301;28;20048;-73
2022/04/27 09:45:34;;;;;;;11.60;7.55;;;;;;;16.02;43.23;100239.91;5093719;28;20111;-73
2022/04/27 09:48:03;;;;;;;8.63;6.95;;;;;;;15.96;42.23;100235.00;5093434;28;20427;-73
2022/04/27 09:50:58;;;;;;;7.15;6.43;;;;;;;16.08;42.63;100243.94;5093358;28;20387;-73
2022/04/27 09:53:24;;;;;;;8.07;6.18;;;;;;;16.18;41.98;100247.69;5093246;28;20073;-73
2022/04/27 09:55:52;;;;;;;15.40;8.07;;;;;;;16.20;42.70;100243.19;5093572;28;20032;-73
2022/04/27 09:58:19;;;;;;;9.82;8.30;;;;;;;16.26;43.76;100224.41;5093135;28;20047;-73
2022/04/27 10:00:45;;;;;;;10.63;8.25;;;;;;;16.78;45.69;100225.66;5093333;28;20028;-73
2022/04/27 10:03:15;;;;;;;10.20;7.60;;;;;;;17.04;41.78;100229.25;5093123;28;20085;-73
2022/04/27 10:05:41;;;;;;;8.82;6.85;;;;;;;17.18;41.14;100237.94;5093218;28;20027;-73
2022/04/27 10:08:08;;;;;;;7.53;5.47;;;;;;;17.07;37.56;100218.53;5078680;28;20062;-73
2022/04/27 10:10:35;;;;;;;8.90;6.60;;;;;;;17.14;38.88;100218.00;5072721;28;20052;-73
2022/04/27 10:13:02;;;;;;;9.63;7.50;;;;;;;17.39;39.13;100226.94;5072780;28;20070;-73
2022/04/27 10:15:29;;;;;;;10.05;7.25;;;;;;;17.78;39.34;100212.97;5072615;28;20029;-73
2022/04/27 10:17:55;;;;;;;7.95;6.57;;;;;;;18.02;36.73;100228.03;5072539;28;20024;-73
2022/04/27 10:20:32;;;;;;;11.00;6.45;;;;;;;18.24;37.66;100228.25;5071972;28;20033;-73
2022/04/27 10:23:19;;;;;;;9.88;7.45;;;;;;;18.44;38.24;100226.88;5072211;28;20400;-73
2022/04/27 10:26:14;;;;;;;13.05;10.02;;;;;;;18.36;39.14;100231.81;5077349;28;20047;-73
2022/04/27 10:28:53;;;;;;;14.32;10.52;;;;;;;17.89;39.56;100226.25;5088949;28;20031;-73
2022/04/27 10:31:42;;;;;;;11.50;9.17;;;;;;;17.62;40.31;100239.47;5080868;28;20021;-73
2022/04/27 10:34:18;;;;;;;12.30;9.45;;;;;;;17.28;41.27;100245.25;5076670;28;20496;-73
2022/04/27 10:36:45;;;;;;;12.15;9.77;;;;;;;17.27;41.60;100238.28;5075202;28;20079;-73
2022/04/27 10:39:13;;;;;;;10.00;8.85;;;;;;;17.33;41.09;100257.16;5071929;28;20035;-73
2022/04/27 10:41:39;;;;;;;10.88;8.48;;;;;;;17.49;41.18;100238.59;5072294;28;20024;-73
2022/04/27 10:44:05;;;;;;;8.82;7.93;;;;;;;17.45;39.56;100245.00;5072429;28;20055;-73
2022/04/27 10:46:38;;;;;;;10.80;9.20;;;;;;;17.30;40.52;100248.63;5072251;28;20501;-73
2022/04/27 10:49:33;;;;;;;10.45;8.63;;;;;;;17.19;40.38;100247.53;5071918;28;20024;-73
2022/04/27 10:52:04;;;;;;;10.07;7.45;;;;;;;17.28;41.28;100240.00;4990290;28;20043;-73
2022/04/27 10:54:31;;;;;;;11.60;8.95;;;;;;;17.39;41.23;100234.84;4990548;28;20034;-73
2022/04/27 10:57:14;;;;;;;13.88;9.50;;;;;;;17.56;41.19;100242.47;4990215;28;20034;-73
2022/04/27 10:59:43;;;;;;;11.25;6.97;;;;;;;17.49;39.18;100251.75;4990417;28;20034;-73
2022/04/27 11:02:32;;;;;;;11.68;9.25;;;;;;;17.50;38.71;100245.53;4990121;28;20759;-73
2022/04/27 11:04:57;;;;;;;7.97;6.38;;;;;;;17.57;37.42;100246.81;4990362;28;20560;-73
2022/04/27 11:07:33;;;;;;;7.90;5.57;;;;;;;17.43;37.16;100247.72;4990237;28;20022;-73
2022/04/27 11:10:18;;;;;;;7.78;5.78;;;;;;;17.53;37.86;100245.34;4989802;28;20054;-73
2022/04/27 11:12:46;;;;;;;10.18;7.53;;;;;;;17.53;38.00;100249.72;4990190;28;20023;-73
2022/04/27 11:15:18;;;;;;;8.63;7.43;;;;;;;17.49;39.05;100243.84;4989692;28;20053;-73
2022/04/27 11:17:43;;;;;;;11.43;7.50;;;;;;;17.17;38.56;100254.66;4990257;28;20468;-73
2022/04/27 11:20:23;;;;;;;8.32;7.00;;;;;;;16.88;39.64;100259.16;5005299;28;20133;-73
2022/04/27 11:22:49;;;;;;;7.72;6.32;;;;;;;16.52;40.40;100243.88;5009844;28;20469;-73
2022/04/27 11:25:31;;;;;;;9.75;7.18;;;;;;;16.35;40.42;100249.28;5009505;28;20061;-73
2022/04/27 11:28:01;;;;;;;9.93;6.47;;;;;;;16.34;41.09;100252.88;5035782;28;20060;-73
2022/04/27 11:30:28;;;;;;;9.27;6.35;;;;;;;16.37;41.03;100243.00;5091831;28;20486;-73
2022/04/27 11:32:54;;;;;;;8.60;7.63;;;;;;;16.50;40.88;100244.91;5091945;28;20039;-73
2022/04/27 11:35:23;;;;;;;13.73;11.55;;;;;;;16.56;40.98;100245.38;5095796;28;20047;-73
2022/04/27 11:37:52;;;;;;;11.00;7.53;;;;;;;16.69;40.57;100222.63;5096053;28;20025;-73
2022/04/27 11:40:19;;;;;;;9.55;8.13;;;;;;;17.09;40.68;100250.84;5095607;28;20425;-73